Cascade, MT

8:30 PM MDT on August 28, 2014 (GMT -0600)
Great Falls International | Change Station
CLOSE
Current Station
Airport
Location: Great Falls,
Elevation: 3658 ft
Nearby Weather Stations

Elev 3658 ft 47.47 °N, 111.38 °W | Updated 37 minutes ago

Clear
Clear
76 °F
Feels Like 76 °F
N
7
Wind Variable Wind from NNW

Today
High -- | Low -- °F
--% Chance of Precip.
Yesterday
High -- | Low -- °F
Precip. -- in
6:40 AM 8:14 PM
Waxing Crescent, 11% visible
Pressure 29.83 in
Visibility 10.0 miles
Clouds Clear
Dew Point 48 °F
Humidity 37%
Rainfall 0.00 in
Snow Depth Not available.
UV 0 out of 12
Pollen 8.90 out of 12
Air Quality Not available.
Flu Activity Not available.
METAR KGTF 290153Z 34006KT 10SM CLR 24/09 A2991 RMK AO2 SLP099 T02440089

More Conditions Fewer Conditions

Pressure 29.83 in
Visibility 10.0 miles
Clouds Clear
Dew Point 48 °F
Humidity 37%
Rainfall 0.00 in
Snow Depth Not available.
UV 0 out of 12
Pollen 8.90 out of 12
Air Quality Not available.
Flu Activity Not available.
METAR KGTF 290153Z 34006KT 10SM CLR 24/09 A2991 RMK AO2 SLP099 T02440089

More Conditions Fewer Conditions

10-Day Weather Forecast

Almanac

Astronomy

Aug. 28, 2014 Rise Set
Actual Time 6:40 AM MDT 8:14 PM MDT
Civil Twilight 6:08 AM MDT 8:46 PM MDT
Nautical Twilight 5:29 AM MDT 9:24 PM MDT
Astronomical Twilight 4:47 AM MDT 10:06 PM MDT
Moon 9:51 AM MDT (8/28) 9:24 PM MDT (8/28)
Length of Visible Light 14h 37m
Length of Day
13h 33m
Tomorrow will be 3m 14s shorter.
Waxing Crescent, 11% of the Moon is Illuminated
Today
Waxing Crescent
Sep 2
First Quarter
Sep 8
Full
Sep 15
Last Quarter
Sep 24
New

Today's Extremes

State Highs State Lows

Community

WunderPhotos

Upload Photos

1,748,134 photos uploaded!

Nearby

Snow Depth

Station Depth Elevation
Onion Park 0 in 7410 ft
Nevada Ridge 0 in 7020 ft
Wood Creek 0 in 5960 ft
Spur Park 0 in 8100 ft
Tizer Basin 0 in 6840 ft

Earthquake Activity

City Distance Mag. Time & Date
No recent earthquake activity has been reported nearby.
Minimum magnitude displayed is 2.5.

Coastal Water Temperatures

Place Temperature
No Stations Reporting

Nearby Weather Stations